Time;durP1;ratioP1;P1;durP2;ratioP2;P2;SDS_P1;SDS_P2;PMS_P1;PMS_P2;Temp;Humidity;BMP_temperature;BMP_pressure;BME280_temperature;BME280_humidity;BME280_pressure;Samples;Min_cycle;Max_cycle;Signal;HPM_P1;HPM_P2
2022/12/13 00:00:44;;;;;;;2.27;2.17;;;-3.00;99.90;;;;;;4929612;28;20224;-63
2022/12/13 00:03:11;;;;;;;2.30;2.20;;;-3.00;99.90;;;;;;4933531;29;20211;-62
2022/12/13 00:05:44;;;;;;;2.13;2.03;;;-3.00;99.90;;;;;;4937757;28;20227;-64
2022/12/13 00:08:11;;;;;;;2.23;2.13;;;-3.20;99.90;;;;;;4939891;28;20314;-64
2022/12/13 00:10:38;;;;;;;2.43;2.30;;;-3.20;99.90;;;;;;4934312;28;20200;-63
2022/12/13 00:13:05;;;;;;;3.17;2.97;;;-3.20;99.90;;;;;;4930525;28;20204;-64
2022/12/13 00:15:32;;;;;;;3.58;3.28;;;-3.30;99.90;;;;;;4931117;28;20211;-64
2022/12/13 00:17:58;;;;;;;4.37;4.07;;;-3.40;99.90;;;;;;4932044;28;20311;-64
2022/12/13 00:20:25;;;;;;;4.03;3.80;;;-3.50;99.90;;;;;;4934673;28;20589;-64
2022/12/13 00:22:53;;;;;;;4.43;4.13;;;-3.60;99.90;;;;;;4934652;28;20231;-65
2022/12/13 00:25:20;;;;;;;4.00;3.70;;;-3.60;99.90;;;;;;4929437;28;20208;-64
2022/12/13 00:27:49;;;;;;;4.70;4.40;;;-3.50;99.90;;;;;;4938754;28;20220;-63
2022/12/13 00:30:16;;;;;;;4.53;4.22;;;-3.60;99.90;;;;;;4934340;28;20218;-67
2022/12/13 00:32:42;;;;;;;8.38;4.90;;;-3.80;99.90;;;;;;4928524;28;20208;-63
2022/12/13 00:35:09;;;;;;;5.43;4.87;;;-3.80;99.90;;;;;;4928046;28;20204;-64
2022/12/13 00:37:36;;;;;;;5.43;5.03;;;-3.90;99.90;;;;;;4928539;28;20238;-64
2022/12/13 00:40:05;;;;;;;5.07;4.43;;;-4.00;99.90;;;;;;4929568;28;20213;-65
2022/12/13 00:42:32;;;;;;;5.20;4.80;;;-3.90;99.90;;;;;;4929900;29;20246;-64
2022/12/13 00:44:59;;;;;;;4.90;4.50;;;-4.00;99.90;;;;;;4930816;28;20210;-63
2022/12/13 00:47:26;;;;;;;29.48;9.73;;;-3.80;99.90;;;;;;4930532;28;20224;-64
2022/12/13 00:49:53;;;;;;;11.07;6.75;;;-3.80;99.90;;;;;;4930986;28;20568;-64
2022/12/13 00:52:20;;;;;;;37.95;14.95;;;-3.90;99.90;;;;;;4930102;28;20210;-64
2022/12/13 00:54:47;;;;;;;15.35;7.40;;;-4.10;99.90;;;;;;4929947;28;20204;-64
2022/12/13 00:57:15;;;;;;;20.48;9.77;;;-4.20;99.90;;;;;;4930360;28;20232;-65
2022/12/13 00:59:42;;;;;;;15.20;6.25;;;-4.20;99.90;;;;;;4930519;28;20204;-64
2022/12/13 01:02:08;;;;;;;20.73;9.93;;;-4.10;99.90;;;;;;4927683;28;20602;-64
2022/12/13 01:04:35;;;;;;;6.13;4.93;;;-4.00;99.90;;;;;;4927208;28;20200;-64
2022/12/13 01:07:02;;;;;;;34.45;10.80;;;-4.00;99.90;;;;;;4930167;28;20224;-64
2022/12/13 01:09:31;;;;;;;15.05;7.50;;;-4.00;99.90;;;;;;4927814;29;20234;-65
2022/12/13 01:11:59;;;;;;;9.02;5.15;;;-4.20;99.90;;;;;;4928829;28;20201;-64
2022/12/13 01:14:27;;;;;;;11.98;8.38;;;-4.10;99.90;;;;;;4929511;28;20215;-64
2022/12/13 01:16:54;;;;;;;5.72;4.40;;;-4.00;99.90;;;;;;4927554;29;20237;-64
2022/12/13 01:19:21;;;;;;;16.52;6.28;;;-4.00;99.90;;;;;;4924625;28;20622;-64
2022/12/13 01:21:48;;;;;;;4.47;4.17;;;-4.00;99.90;;;;;;4927388;29;20223;-64
2022/12/13 01:24:19;;;;;;;3.93;3.73;;;-3.90;99.90;;;;;;4929390;28;20218;-63
2022/12/13 01:26:46;;;;;;;3.90;3.45;;;-3.90;99.90;;;;;;4929710;28;20723;-64
2022/12/13 01:29:13;;;;;;;7.47;5.78;;;-3.70;99.90;;;;;;4927100;28;20208;-64
2022/12/13 01:31:41;;;;;;;4.78;4.43;;;-3.60;99.90;;;;;;4930585;29;20204;-64
2022/12/13 01:34:10;;;;;;;35.40;9.30;;;-3.50;99.90;;;;;;4929736;29;20299;-64
2022/12/13 01:36:37;;;;;;;12.40;6.13;;;-3.60;99.90;;;;;;4923315;29;20208;-64
2022/12/13 01:39:04;;;;;;;7.55;4.65;;;-3.70;99.90;;;;;;4929975;29;20208;-63
2022/12/13 01:41:34;;;;;;;5.72;4.15;;;-3.90;99.90;;;;;;4930135;29;20223;-64
2022/12/13 01:44:02;;;;;;;4.85;4.00;;;-3.90;99.90;;;;;;4929605;29;20552;-64
2022/12/13 01:46:30;;;;;;;43.70;13.32;;;-3.80;99.90;;;;;;4930278;28;20219;-65
2022/12/13 01:49:03;;;;;;;11.50;5.90;;;-3.90;99.90;;;;;;4930183;28;20204;-65
2022/12/13 01:51:35;;;;;;;4.88;4.45;;;-4.10;99.90;;;;;;4927747;29;20211;-64
2022/12/13 01:54:04;;;;;;;7.53;4.50;;;-4.10;99.90;;;;;;4932744;28;20204;-64
2022/12/13 01:56:35;;;;;;;8.50;3.97;;;-4.10;99.90;;;;;;4929548;29;20208;-64
2022/12/13 01:59:04;;;;;;;4.18;3.78;;;-4.20;99.90;;;;;;4933644;29;20212;-65
2022/12/13 02:01:31;;;;;;;3.95;3.75;;;-4.10;99.90;;;;;;4928729;29;20232;-65
2022/12/13 02:04:00;;;;;;;4.13;3.83;;;-4.10;99.90;;;;;;4933038;29;20204;-63
2022/12/13 02:06:32;;;;;;;14.02;4.18;;;-4.10;99.90;;;;;;4933942;28;20205;-64
2022/12/13 02:09:00;;;;;;;17.38;6.95;;;-4.10;99.90;;;;;;4929740;28;20295;-65
2022/12/13 02:11:27;;;;;;;4.72;4.25;;;-4.30;99.90;;;;;;4933242;28;20200;-64
2022/12/13 02:13:54;;;;;;;4.65;4.25;;;-4.50;99.90;;;;;;4938105;29;20204;-64
2022/12/13 02:16:38;;;;;;;4.15;3.85;;;-4.50;99.90;;;;;;4947712;28;20279;-63
2022/12/13 02:19:33;;;;;;;16.60;6.07;;;-4.40;99.90;;;;;;4937033;29;20208;-62
2022/12/13 02:22:09;;;;;;;72.47;19.30;;;-4.50;99.90;;;;;;4933105;29;20230;-65
2022/12/13 02:25:05;;;;;;;37.28;11.63;;;-4.70;99.90;;;;;;4932230;29;20226;-63
2022/12/13 02:27:56;;;;;;;10.10;6.47;;;-4.80;99.90;;;;;;4927507;29;20231;-65
2022/12/13 02:30:29;;;;;;;13.95;6.65;;;-4.80;99.90;;;;;;4935778;28;20219;-64
2022/12/13 02:33:16;;;;;;;28.05;10.32;;;-4.70;99.90;;;;;;4932505;29;20704;-63
2022/12/13 02:35:51;;;;;;;8.05;3.33;;;-4.60;99.90;;;;;;4927345;29;20260;-64
2022/12/13 02:38:27;;;;;;;6.30;4.03;;;-4.60;99.90;;;;;;4934656;29;20251;-65
2022/12/13 02:41:00;;;;;;;3.73;3.53;;;-4.60;99.90;;;;;;4938171;29;20210;-64
2022/12/13 02:43:31;;;;;;;54.23;13.27;;;-4.50;99.90;;;;;;4933895;28;20664;-64
2022/12/13 02:46:01;;;;;;;3.97;3.25;;;-4.50;99.90;;;;;;4937327;28;20212;-65
2022/12/13 02:48:48;;;;;;;28.35;7.05;;;-4.90;99.90;;;;;;4935518;29;20254;-64
2022/12/13 02:51:16;;;;;;;4.30;3.93;;;-4.80;99.90;;;;;;4932497;29;20214;-65
2022/12/13 02:53:44;;;;;;;3.88;3.53;;;-4.90;99.90;;;;;;4933172;28;20215;-63
2022/12/13 02:56:11;;;;;;;4.50;3.33;;;-4.80;99.90;;;;;;4935223;29;20214;-64
2022/12/13 02:58:45;;;;;;;3.67;3.37;;;-4.80;99.90;;;;;;4934589;29;20232;-62
2022/12/13 03:01:44;;;;;;;3.85;3.55;;;-4.80;99.90;;;;;;4932351;29;20299;-63
2022/12/13 03:04:24;;;;;;;3.47;3.28;;;-4.70;99.90;;;;;;4931540;28;20211;-65
2022/12/13 03:06:57;;;;;;;3.08;2.88;;;-4.60;99.90;;;;;;4932396;29;20228;-65
2022/12/13 03:09:33;;;;;;;3.70;3.40;;;-4.60;99.90;;;;;;4932357;29;20200;-65
2022/12/13 03:15:10;;;;;;;3.08;2.88;;;-4.40;99.90;;;;;;4928444;29;20281;-63
2022/12/13 03:17:43;;;;;;;3.38;3.17;;;-4.40;99.90;;;;;;4925214;28;20243;-64
2022/12/13 03:20:16;;;;;;;3.20;3.00;;;-4.40;99.90;;;;;;4924359;28;20208;-64
2022/12/13 03:22:43;;;;;;;3.35;3.15;;;-4.30;99.90;;;;;;4931131;29;20711;-64
2022/12/13 03:25:10;;;;;;;4.95;4.55;;;-4.30;99.90;;;;;;4932050;29;20208;-64
2022/12/13 03:27:37;;;;;;;3.90;3.60;;;-4.30;99.90;;;;;;4931949;29;20231;-63
2022/12/13 03:30:04;;;;;;;6.03;4.55;;;-4.40;99.90;;;;;;4931854;28;20204;-63
2022/12/13 03:32:31;;;;;;;3.47;3.28;;;-4.30;99.90;;;;;;4931940;28;20200;-63
2022/12/13 03:34:58;;;;;;;6.20;3.87;;;-4.40;99.90;;;;;;4931937;28;20678;-64
2022/12/13 03:37:26;;;;;;;3.43;3.17;;;-4.40;99.90;;;;;;4931629;28;20220;-65
2022/12/13 03:39:53;;;;;;;3.33;3.10;;;-4.50;99.90;;;;;;4931768;29;20219;-63
2022/12/13 03:42:20;;;;;;;9.63;5.37;;;-4.40;99.90;;;;;;4930766;29;20228;-63
2022/12/13 03:44:47;;;;;;;5.15;3.30;;;-4.40;99.90;;;;;;4932644;28;20214;-63
2022/12/13 03:47:14;;;;;;;6.33;4.47;;;-4.60;99.90;;;;;;4932308;28;20686;-64
2022/12/13 03:49:41;;;;;;;3.40;3.20;;;-4.70;99.90;;;;;;4932768;28;20208;-63
2022/12/13 03:52:07;;;;;;;3.50;3.30;;;-4.70;99.90;;;;;;4932255;29;20212;-65
2022/12/13 03:54:36;;;;;;;3.20;3.00;;;-4.80;99.90;;;;;;4931300;29;20211;-63
2022/12/13 03:57:03;;;;;;;5.53;4.83;;;-4.70;99.90;;;;;;4932198;29;20228;-65
2022/12/13 03:59:30;;;;;;;27.80;11.83;;;-4.80;99.90;;;;;;4933750;28;20204;-64
2022/12/13 04:01:56;;;;;;;3.60;3.40;;;-5.00;99.90;;;;;;4943157;28;20227;-64
2022/12/13 04:04:23;;;;;;;3.47;3.27;;;-5.00;99.90;;;;;;4940927;29;20311;-63
2022/12/13 04:06:50;;;;;;;3.72;3.53;;;-4.90;99.90;;;;;;4932095;29;20228;-63
2022/12/13 04:09:17;;;;;;;4.32;3.92;;;-4.60;99.90;;;;;;4934444;29;20219;-65
2022/12/13 04:14:29;;;;;;;14.48;7.70;;;-4.40;99.90;;;;;;4927280;29;20315;-65
2022/12/13 04:16:56;;;;;;;7.53;4.43;;;-4.70;99.90;;;;;;4931387;28;20328;-63
2022/12/13 04:19:23;;;;;;;7.40;4.05;;;-4.90;99.90;;;;;;4933790;29;20711;-63
2022/12/13 04:21:50;;;;;;;10.10;5.97;;;-5.00;99.90;;;;;;4934470;28;20252;-64
2022/12/13 04:24:17;;;;;;;3.72;3.53;;;-4.90;99.90;;;;;;4943400;29;20267;-62
2022/12/13 04:26:45;;;;;;;6.18;3.75;;;-4.90;99.90;;;;;;4933708;29;20220;-65
2022/12/13 04:29:12;;;;;;;3.33;3.05;;;-5.00;99.90;;;;;;4931228;28;20303;-64
2022/12/13 04:31:39;;;;;;;3.20;3.00;;;-4.90;99.90;;;;;;4930667;29;20204;-65
2022/12/13 04:34:06;;;;;;;3.47;3.17;;;-4.90;99.90;;;;;;4930449;28;20219;-65
2022/12/13 04:36:32;;;;;;;6.68;3.70;;;-4.90;99.90;;;;;;4930915;29;20212;-63
2022/12/13 04:39:00;;;;;;;4.97;4.10;;;-4.90;99.90;;;;;;4931303;28;20208;-63
2022/12/13 04:41:28;;;;;;;4.73;3.47;;;-5.00;99.90;;;;;;4930889;28;20894;-63
2022/12/13 04:43:56;;;;;;;6.95;6.10;;;-5.10;99.90;;;;;;4929825;28;20232;-63
2022/12/13 04:46:23;;;;;;;4.70;3.85;;;-5.10;99.90;;;;;;4930730;28;20222;-63
2022/12/13 04:48:49;;;;;;;4.07;3.47;;;-5.10;99.90;;;;;;4930501;29;20204;-63
2022/12/13 04:51:16;;;;;;;4.30;4.00;;;-5.10;99.90;;;;;;4932440;28;20570;-63
2022/12/13 04:53:43;;;;;;;3.03;2.83;;;-5.10;99.90;;;;;;4931210;29;20210;-64
2022/12/13 04:56:10;;;;;;;3.60;3.40;;;-5.00;99.90;;;;;;4931920;29;20660;-65
2022/12/13 04:58:37;;;;;;;3.40;3.20;;;-5.00;99.90;;;;;;4931710;29;20629;-64
2022/12/13 05:01:08;;;;;;;3.33;3.13;;;-5.10;99.90;;;;;;4931753;29;20212;-64
2022/12/13 05:03:35;;;;;;;3.28;3.08;;;-5.00;99.90;;;;;;4935090;29;20238;-64
2022/12/13 05:06:05;;;;;;;3.20;3.00;;;-5.00;99.90;;;;;;4940657;29;20268;-64
2022/12/13 05:08:31;;;;;;;3.15;2.95;;;-5.10;99.90;;;;;;4924156;29;20223;-64
2022/12/13 05:10:58;;;;;;;3.03;2.85;;;-5.10;99.90;;;;;;4928193;28;20216;-63
2022/12/13 05:13:25;;;;;;;3.40;3.20;;;-5.00;99.90;;;;;;4931117;28;20538;-63
2022/12/13 05:15:55;;;;;;;3.58;3.38;;;-4.90;99.90;;;;;;4931748;29;20220;-63
2022/12/13 05:18:24;;;;;;;3.17;2.97;;;-4.90;99.90;;;;;;4931772;28;20228;-64
2022/12/13 05:20:50;;;;;;;3.03;2.83;;;-4.90;99.90;;;;;;4931362;29;20222;-63
2022/12/13 05:23:18;;;;;;;3.08;2.88;;;-4.80;99.90;;;;;;4931545;28;20231;-64
2022/12/13 05:25:45;;;;;;;3.30;3.10;;;-4.80;99.90;;;;;;4931628;29;20208;-64
2022/12/13 05:28:12;;;;;;;2.80;2.70;;;-4.80;99.90;;;;;;4936410;28;20239;-65
2022/12/13 05:30:39;;;;;;;3.13;2.92;;;-4.70;99.90;;;;;;4931548;29;20210;-63
2022/12/13 05:33:06;;;;;;;3.65;3.45;;;-4.70;99.90;;;;;;4931061;29;20589;-64
2022/12/13 05:35:35;;;;;;;3.80;3.60;;;-4.70;99.90;;;;;;4930616;29;20220;-64
2022/12/13 05:38:02;;;;;;;3.35;3.15;;;-4.70;99.90;;;;;;4930538;29;20547;-65
2022/12/13 05:40:31;;;;;;;3.37;3.17;;;-4.60;99.90;;;;;;4929488;28;20235;-64
2022/12/13 05:42:58;;;;;;;3.65;3.45;;;-4.60;99.90;;;;;;4931866;28;20235;-63
2022/12/13 05:45:27;;;;;;;3.88;3.67;;;-4.60;99.90;;;;;;4945520;28;20714;-62
2022/12/13 05:47:53;;;;;;;3.50;3.30;;;-4.70;99.90;;;;;;4931591;29;20265;-65
2022/12/13 05:50:20;;;;;;;4.00;3.70;;;-4.70;99.90;;;;;;4931363;28;20214;-63
2022/12/13 05:52:49;;;;;;;4.10;3.80;;;-4.70;99.90;;;;;;4931134;29;20208;-63
2022/12/13 05:55:16;;;;;;;3.43;3.23;;;-4.80;99.90;;;;;;4930258;29;20208;-66
2022/12/13 05:57:42;;;;;;;4.15;3.85;;;-4.70;99.90;;;;;;4929103;29;20696;-64
2022/12/13 06:00:11;;;;;;;3.67;3.47;;;-4.70;99.90;;;;;;4929272;28;20212;-65
2022/12/13 06:02:38;;;;;;;4.03;3.80;;;-4.80;99.90;;;;;;4929348;28;20372;-64
2022/12/13 06:05:05;;;;;;;3.70;3.40;;;-4.70;99.90;;;;;;4929763;29;20214;-64
2022/12/13 06:07:32;;;;;;;4.05;3.80;;;-4.70;99.90;;;;;;4930046;29;20224;-63
2022/12/13 06:10:00;;;;;;;4.03;3.72;;;-4.70;99.90;;;;;;4927863;29;20677;-64
2022/12/13 06:12:27;;;;;;;4.13;3.83;;;-4.70;99.90;;;;;;4929182;29;20200;-64
2022/12/13 06:14:54;;;;;;;4.18;3.92;;;-4.70;99.90;;;;;;4929979;28;20291;-65
2022/12/13 06:17:23;;;;;;;5.53;5.03;;;-4.90;99.90;;;;;;4930487;29;20242;-65
2022/12/13 06:19:50;;;;;;;5.10;4.80;;;-5.00;99.90;;;;;;4930077;28;20278;-65
2022/12/13 06:22:17;;;;;;;16.98;15.55;;;-5.00;99.90;;;;;;4928896;28;20559;-65
2022/12/13 06:24:44;;;;;;;8.40;7.80;;;-5.00;99.90;;;;;;4928310;28;20208;-65
2022/12/13 06:27:12;;;;;;;6.30;5.90;;;-5.00;99.90;;;;;;4928981;28;20232;-64
2022/12/13 06:29:39;;;;;;;5.83;5.43;;;-5.00;99.90;;;;;;4948596;28;20204;-64
2022/12/13 06:32:06;;;;;;;5.57;5.17;;;-5.00;99.90;;;;;;4946595;28;20208;-64
2022/12/13 06:34:35;;;;;;;5.78;5.28;;;-5.00;99.90;;;;;;4933735;28;20673;-63
2022/12/13 06:37:02;;;;;;;4.50;4.20;;;-5.00;99.90;;;;;;4930882;28;20224;-64
2022/12/13 06:39:29;;;;;;;4.35;4.05;;;-5.10;99.90;;;;;;4929844;29;20206;-65
2022/12/13 06:41:56;;;;;;;3.92;3.72;;;-5.00;99.90;;;;;;4933362;28;20204;-63
2022/12/13 06:44:25;;;;;;;4.28;3.97;;;-5.00;99.90;;;;;;4934183;29;20231;-62
2022/12/13 06:46:51;;;;;;;4.40;4.10;;;-5.00;99.90;;;;;;4969142;28;20284;-63
2022/12/13 06:49:18;;;;;;;4.22;3.83;;;-5.10;99.90;;;;;;4965072;28;20298;-63
2022/12/13 06:51:45;;;;;;;3.75;3.55;;;-5.10;99.90;;;;;;4946592;29;20219;-64
2022/12/13 06:54:12;;;;;;;3.97;3.67;;;-5.10;99.90;;;;;;4945102;28;20211;-63
2022/12/13 06:56:38;;;;;;;3.50;3.30;;;-5.20;99.90;;;;;;4944423;28;20218;-64
2022/12/13 06:59:06;;;;;;;3.40;3.20;;;-5.20;99.90;;;;;;4940080;28;20208;-64
2022/12/13 07:01:34;;;;;;;3.38;3.17;;;-5.10;99.90;;;;;;4938934;28;20257;-65
2022/12/13 07:04:01;;;;;;;3.33;3.13;;;-5.00;99.90;;;;;;4933596;29;20230;-63
2022/12/13 07:06:28;;;;;;;3.67;3.40;;;-4.90;99.90;;;;;;4925492;28;20464;-64
2022/12/13 07:08:57;;;;;;;3.90;3.70;;;-5.00;99.90;;;;;;4933484;29;20272;-64
2022/12/13 07:11:26;;;;;;;4.57;4.28;;;-5.00;99.90;;;;;;4931989;28;20235;-64
2022/12/13 07:13:53;;;;;;;4.88;4.57;;;-5.10;99.90;;;;;;4934720;29;20204;-63
2022/12/13 07:16:21;;;;;;;5.30;5.00;;;-5.10;99.90;;;;;;4935356;28;20216;-63
2022/12/13 07:18:54;;;;;;;4.22;3.92;;;-5.10;99.90;;;;;;4932676;28;20216;-65
2022/12/13 07:21:21;;;;;;;4.53;4.22;;;-5.10;99.90;;;;;;4935702;29;20204;-64
2022/12/13 07:23:49;;;;;;;5.25;4.85;;;-5.20;99.90;;;;;;4947324;29;20775;-63
2022/12/13 07:26:16;;;;;;;4.20;3.97;;;-5.30;99.90;;;;;;4933083;29;20212;-63
2022/12/13 07:28:43;;;;;;;5.15;4.65;;;-5.30;99.90;;;;;;4934966;29;20224;-64
2022/12/13 07:31:10;;;;;;;3.97;3.78;;;-5.30;99.90;;;;;;4933062;29;20299;-62
2022/12/13 07:33:37;;;;;;;4.00;3.80;;;-5.30;99.90;;;;;;4933107;28;20295;-63
2022/12/13 07:36:08;;;;;;;3.55;3.35;;;-5.40;99.90;;;;;;4932550;29;20204;-65
2022/12/13 07:38:35;;;;;;;3.70;3.50;;;-5.30;99.90;;;;;;4932225;29;20700;-63
2022/12/13 07:41:03;;;;;;;3.47;3.28;;;-5.30;99.90;;;;;;4936007;28;20216;-64
2022/12/13 07:43:30;;;;;;;3.90;3.70;;;-5.30;99.90;;;;;;4932776;28;20787;-63
2022/12/13 07:45:58;;;;;;;3.22;3.03;;;-5.20;99.90;;;;;;4931584;28;20212;-65
2022/12/13 07:48:25;;;;;;;3.67;3.45;;;-5.10;99.90;;;;;;4928170;28;20703;-62
2022/12/13 07:50:52;;;;;;;4.70;4.40;;;-5.10;99.90;;;;;;4938693;28;20583;-63
2022/12/13 07:53:21;;;;;;;4.50;4.30;;;-5.10;99.90;;;;;;4931781;28;20294;-64
2022/12/13 07:55:48;;;;;;;4.05;3.85;;;-5.10;99.90;;;;;;4931566;28;20208;-64
2022/12/13 07:58:15;;;;;;;4.03;3.72;;;-5.00;99.90;;;;;;4931961;28;20734;-64
2022/12/13 08:00:45;;;;;;;3.97;3.67;;;-5.00;99.90;;;;;;4931920;29;20204;-64
2022/12/13 08:03:12;;;;;;;4.60;4.20;;;-5.10;99.90;;;;;;4929677;28;20235;-64
2022/12/13 08:05:39;;;;;;;4.03;3.80;;;-5.00;99.90;;;;;;4934870;29;20460;-64
2022/12/13 08:08:08;;;;;;;4.13;3.83;;;-4.90;99.90;;;;;;4935121;28;20607;-65
2022/12/13 08:10:36;;;;;;;5.00;4.30;;;-5.00;99.90;;;;;;4929404;28;20208;-64
2022/12/13 08:13:03;;;;;;;4.03;3.83;;;-5.00;99.90;;;;;;4930897;28;20228;-63
2022/12/13 08:15:30;;;;;;;3.83;3.63;;;-5.00;99.90;;;;;;4929329;29;20204;-64
2022/12/13 08:17:59;;;;;;;3.60;3.40;;;-4.80;99.90;;;;;;4930309;29;20277;-65
2022/12/13 08:20:26;;;;;;;4.03;3.73;;;-4.70;99.90;;;;;;4931704;28;20579;-65
2022/12/13 08:22:57;;;;;;;3.72;3.53;;;-4.60;99.90;;;;;;4928744;28;20208;-65
2022/12/13 08:25:24;;;;;;;4.10;3.80;;;-4.50;99.90;;;;;;4929704;28;20208;-64
2022/12/13 08:27:53;;;;;;;3.70;3.50;;;-4.50;99.90;;;;;;4936710;29;20228;-65
2022/12/13 08:30:19;;;;;;;3.88;3.58;;;-4.50;99.90;;;;;;4926492;28;20208;-65
2022/12/13 08:32:49;;;;;;;4.53;3.20;;;-4.50;99.90;;;;;;4925902;28;20204;-63
2022/12/13 08:35:16;;;;;;;3.70;3.50;;;-4.40;99.90;;;;;;4929619;28;20212;-64
2022/12/13 08:37:43;;;;;;;3.70;3.47;;;-4.20;99.90;;;;;;4932425;29;20241;-63
2022/12/13 08:40:10;;;;;;;3.72;3.53;;;-4.10;99.90;;;;;;4946862;28;20311;-63
2022/12/13 08:42:37;;;;;;;4.13;3.92;;;-4.10;99.90;;;;;;4938595;29;21032;-64
2022/12/13 08:45:07;;;;;;;4.47;4.18;;;-4.10;99.90;;;;;;4931793;28;20228;-63
2022/12/13 08:47:34;;;;;;;3.38;3.22;;;-4.20;99.90;;;;;;4929646;29;20228;-65
2022/12/13 08:50:01;;;;;;;3.83;3.60;;;-4.10;99.90;;;;;;4932315;28;20204;-64
2022/12/13 08:52:27;;;;;;;3.70;3.50;;;-4.00;99.90;;;;;;4929492;28;20204;-64
2022/12/13 08:54:54;;;;;;;4.22;4.00;;;-4.00;99.90;;;;;;4931527;28;20683;-63
2022/12/13 08:57:21;;;;;;;4.13;3.83;;;-3.90;99.90;;;;;;4931169;28;20232;-65
2022/12/13 08:59:48;;;;;;;4.47;4.18;;;-3.90;99.90;;;;;;4929061;28;20665;-64
2022/12/13 09:02:16;;;;;;;4.20;3.90;;;-3.90;99.90;;;;;;4928084;28;20208;-65
2022/12/13 09:04:43;;;;;;;4.30;4.00;;;-3.90;99.90;;;;;;4931061;28;20232;-65
2022/12/13 09:07:10;;;;;;;4.30;4.05;;;-4.10;99.90;;;;;;4931696;29;20250;-65
2022/12/13 09:09:37;;;;;;;3.77;3.57;;;-4.20;99.90;;;;;;4931130;29;20299;-63
2022/12/13 09:12:04;;;;;;;4.55;4.25;;;-4.20;99.90;;;;;;4931665;28;20204;-64
2022/12/13 09:14:31;;;;;;;4.10;3.83;;;-4.10;99.90;;;;;;4925357;29;20673;-64
2022/12/13 09:16:58;;;;;;;3.60;3.40;;;-4.20;99.90;;;;;;4947819;28;20260;-62
2022/12/13 09:19:27;;;;;;;4.20;3.90;;;-4.30;99.90;;;;;;4950225;28;20262;-62
2022/12/13 09:21:56;;;;;;;4.43;4.13;;;-4.20;99.90;;;;;;4931469;29;20254;-64
2022/12/13 09:24:24;;;;;;;3.75;3.55;;;-4.20;99.90;;;;;;4930142;29;20227;-62
2022/12/13 09:26:52;;;;;;;3.83;3.63;;;-4.30;99.90;;;;;;4931732;28;20282;-64
2022/12/13 09:29:19;;;;;;;3.63;3.42;;;-4.30;99.90;;;;;;4920927;28;20937;-63
2022/12/13 09:31:46;;;;;;;3.60;3.40;;;-4.30;99.90;;;;;;4934800;28;20243;-62
2022/12/13 09:34:12;;;;;;;3.67;3.47;;;-4.20;99.90;;;;;;4935510;29;20211;-63
2022/12/13 09:36:41;;;;;;;4.13;3.92;;;-4.30;99.90;;;;;;4927520;29;20211;-62
2022/12/13 09:39:11;;;;;;;4.13;3.88;;;-4.50;99.90;;;;;;4934439;28;20216;-64
2022/12/13 09:41:42;;;;;;;4.00;3.70;;;-4.50;99.90;;;;;;4933886;28;20274;-64
2022/12/13 09:44:19;;;;;;;3.95;3.75;;;-4.50;99.90;;;;;;4930597;28;20215;-64
2022/12/13 09:46:47;;;;;;;4.38;4.07;;;-4.30;99.90;;;;;;4934074;28;20232;-63
2022/12/13 09:49:18;;;;;;;3.55;3.35;;;-4.10;99.90;;;;;;4931140;28;20234;-66
2022/12/13 09:51:52;;;;;;;3.45;3.25;;;-4.10;99.90;;;;;;4925326;29;20641;-63
2022/12/13 09:54:21;;;;;;;4.00;3.72;;;-4.20;99.90;;;;;;4930963;29;20204;-62
2022/12/13 09:56:49;;;;;;;3.50;3.28;;;-4.00;99.90;;;;;;4931587;29;20250;-63
2022/12/13 09:59:17;;;;;;;3.60;3.30;;;-3.90;99.90;;;;;;4926055;28;20212;-63
2022/12/13 10:01:44;;;;;;;3.40;3.20;;;-3.90;99.90;;;;;;4931416;29;20782;-64
2022/12/13 10:04:14;;;;;;;3.80;3.53;;;-3.80;99.90;;;;;;4930937;29;20232;-64
2022/12/13 10:06:41;;;;;;;3.30;3.10;;;-3.70;99.90;;;;;;4924884;28;20286;-62
2022/12/13 10:09:12;;;;;;;3.37;3.17;;;-3.80;99.90;;;;;;4931753;28;20208;-63
2022/12/13 10:11:47;;;;;;;3.83;3.53;;;-3.50;99.90;;;;;;4932078;29;20239;-63
2022/12/13 10:14:20;;;;;;;3.00;2.85;;;-3.50;99.90;;;;;;4930563;28;20226;-63
2022/12/13 10:19:39;;;;;;;3.03;2.83;;;-3.40;99.90;;;;;;4911103;28;20204;-61
2022/12/13 10:22:11;;;;;;;3.55;3.35;;;-3.30;99.90;;;;;;4916603;28;20209;-63
2022/12/13 10:24:52;;;;;;;3.60;3.40;;;-3.20;99.90;;;;;;4894414;29;20235;-62
2022/12/13 10:27:20;;;;;;;3.40;3.20;;;-3.10;99.90;;;;;;4894222;29;20286;-61
2022/12/13 10:30:05;;;;;;;3.40;3.20;;;-3.00;99.90;;;;;;4891134;29;20252;-62
2022/12/13 10:32:34;;;;;;;3.60;3.40;;;-3.30;99.90;;;;;;4889384;29;20209;-62
2022/12/13 10:35:11;;;;;;;3.70;3.50;;;-3.40;99.90;;;;;;4895019;29;20250;-61
2022/12/13 10:37:38;;;;;;;4.80;4.50;;;-3.20;99.90;;;;;;4888580;29;20235;-64
2022/12/13 10:40:21;;;;;;;4.33;4.03;;;-3.10;99.90;;;;;;4902746;29;20209;-62
2022/12/13 10:43:11;;;;;;;4.22;4.00;;;-3.10;99.90;;;;;;4906897;29;20634;-62
2022/12/13 10:45:39;;;;;;;4.07;3.87;;;-3.00;99.90;;;;;;4880199;29;20228;-62
2022/12/13 10:48:17;;;;;;;4.78;4.47;;;-2.90;99.90;;;;;;4888749;29;20229;-62
2022/12/13 10:50:44;;;;;;;4.60;4.30;;;-2.90;99.90;;;;;;4895380;29;20208;-61
2022/12/13 10:53:18;;;;;;;4.60;4.30;;;-2.90;99.90;;;;;;4896916;29;20209;-63
2022/12/13 10:55:54;;;;;;;3.83;3.63;;;-2.90;99.90;;;;;;4893900;29;20216;-62
2022/12/13 10:58:21;;;;;;;4.70;4.40;;;-2.90;99.90;;;;;;4932273;28;20231;-62
2022/12/13 11:00:48;;;;;;;4.68;4.38;;;-2.80;99.90;;;;;;4933343;29;20204;-63
2022/12/13 11:03:31;;;;;;;4.50;4.20;;;-2.80;99.90;;;;;;4927713;28;20212;-63
2022/12/13 11:06:03;;;;;;;4.80;4.50;;;-2.80;99.90;;;;;;4931679;28;20215;-63
2022/12/13 11:08:30;;;;;;;4.70;4.40;;;-2.80;99.90;;;;;;4936612;28;20228;-64
2022/12/13 11:11:01;;;;;;;4.85;4.55;;;-2.70;99.90;;;;;;4936070;28;20220;-63
2022/12/13 11:13:37;;;;;;;4.70;4.40;;;-2.60;99.90;;;;;;4935556;28;20215;-63
2022/12/13 11:16:14;;;;;;;5.13;4.83;;;-2.70;99.90;;;;;;4934031;28;20218;-63
2022/12/13 11:18:41;;;;;;;4.50;4.30;;;-2.60;99.90;;;;;;4930245;28;20228;-63
2022/12/13 11:21:09;;;;;;;5.13;4.83;;;-2.70;99.90;;;;;;4935957;29;20222;-63
2022/12/13 11:23:39;;;;;;;5.35;5.05;;;-2.70;99.90;;;;;;4932876;28;20694;-63
2022/12/13 11:26:11;;;;;;;4.82;4.53;;;-2.70;99.90;;;;;;4936007;28;20211;-61
2022/12/13 11:28:58;;;;;;;4.73;4.43;;;-2.80;99.90;;;;;;4962892;28;20667;-61
2022/12/13 11:31:31;;;;;;;4.80;4.50;;;-2.70;99.90;;;;;;4931260;29;20243;-62
2022/12/13 11:34:06;;;;;;;4.63;4.33;;;-2.50;99.90;;;;;;4932016;29;20203;-62
2022/12/13 11:36:44;;;;;;;4.57;4.27;;;-2.40;99.90;;;;;;4931281;28;20207;-63
2022/12/13 11:39:19;;;;;;;4.80;4.50;;;-2.20;99.90;;;;;;4931716;28;20247;-62
2022/12/13 11:41:54;;;;;;;5.57;5.17;;;-2.20;99.90;;;;;;4925744;29;20668;-63
2022/12/13 11:44:27;;;;;;;4.63;4.43;;;-2.10;99.90;;;;;;4930972;29;20277;-61
2022/12/13 11:46:58;;;;;;;4.53;4.22;;;-2.10;99.90;;;;;;4927035;29;20746;-62
2022/12/13 11:49:36;;;;;;;4.73;4.43;;;-2.10;99.90;;;;;;4932816;28;20247;-63
2022/12/13 11:52:11;;;;;;;4.82;4.53;;;-2.00;99.90;;;;;;4933042;29;20220;-62
2022/12/13 11:54:48;;;;;;;5.32;5.03;;;-1.90;99.90;;;;;;4931323;29;20878;-62
2022/12/13 11:57:26;;;;;;;4.33;4.03;;;-1.90;99.90;;;;;;4932661;29;20669;-63
2022/12/13 12:00:01;;;;;;;5.10;4.80;;;-1.80;99.90;;;;;;4933123;29;20537;-62
2022/12/13 12:02:33;;;;;;;5.43;5.03;;;-1.80;99.90;;;;;;4932423;29;20211;-63
2022/12/13 12:05:05;;;;;;;4.63;4.33;;;-1.70;99.90;;;;;;4932744;29;20603;-63
2022/12/13 12:07:39;;;;;;;4.88;4.57;;;-1.60;99.90;;;;;;4930463;29;20224;-62
2022/12/13 12:10:21;;;;;;;4.90;4.60;;;-1.60;99.90;;;;;;4938314;29;20204;-62
2022/12/13 12:12:55;;;;;;;4.50;4.20;;;-1.50;99.90;;;;;;4937528;29;20272;-62
2022/12/13 12:15:26;;;;;;;4.63;4.33;;;-1.40;99.90;;;;;;4938155;28;20199;-62
2022/12/13 12:17:53;;;;;;;4.53;4.22;;;-1.40;99.90;;;;;;4937609;29;20231;-62
2022/12/13 12:20:39;;;;;;;4.87;4.57;;;-1.40;99.90;;;;;;4932523;28;20672;-63
2022/12/13 12:23:16;;;;;;;5.27;4.90;;;-1.40;99.90;;;;;;4929429;28;20208;-62
2022/12/13 12:25:48;;;;;;;5.50;5.10;;;-1.40;99.90;;;;;;4931968;29;20703;-61
2022/12/13 12:28:25;;;;;;;4.70;4.40;;;-1.40;99.90;;;;;;4930580;29;20234;-62
2022/12/13 12:31:03;;;;;;;4.70;4.43;;;-1.40;99.90;;;;;;4932106;29;20402;-63
2022/12/13 12:33:38;;;;;;;4.50;4.20;;;-1.40;99.90;;;;;;4924419;29;20211;-62
2022/12/13 12:36:28;;;;;;;4.63;4.32;;;-1.30;99.90;;;;;;4930621;29;20210;-63
2022/12/13 12:39:34;;;;;;;5.30;4.90;;;-1.20;99.90;;;;;;4941230;28;20219;-62
2022/12/13 12:42:38;;;;;;;4.90;4.60;;;-1.20;99.90;;;;;;4979561;28;20602;-63
2022/12/13 12:45:19;;;;;;;4.65;4.35;;;-1.10;99.90;;;;;;4979617;28;20702;-63
2022/12/13 12:47:56;;;;;;;5.55;5.22;;;-1.00;99.90;;;;;;4985025;28;20290;-63
2022/12/13 12:50:33;;;;;;;5.23;4.73;;;-1.00;99.90;;;;;;4993795;28;20216;-63
2022/12/13 12:53:11;;;;;;;5.40;5.03;;;-0.90;99.90;;;;;;4981539;28;20210;-64
2022/12/13 12:55:48;;;;;;;5.10;4.70;;;-0.90;99.90;;;;;;4978456;28;20195;-62
2022/12/13 12:58:26;;;;;;;5.20;4.87;;;-0.80;99.90;;;;;;4971987;28;20336;-63
2022/12/13 13:01:09;;;;;;;5.20;4.80;;;-0.70;99.90;;;;;;4979033;28;20202;-62
2022/12/13 13:03:38;;;;;;;4.45;4.20;;;-0.70;99.90;;;;;;4968715;28;20682;-63
2022/12/13 13:06:11;;;;;;;5.43;5.13;;;-0.60;99.90;;;;;;4973479;28;20231;-63
2022/12/13 13:08:44;;;;;;;5.40;4.73;;;-0.50;99.90;;;;;;4984841;28;20268;-62